sensor_id;sensor_type;location;lat;lon;timestamp;temperature;humidity
6666;DHT22;3369;49.906;8.598;2023-04-03T00:02:17;4.30;99.90
6666;DHT22;3369;49.906;8.598;2023-04-03T00:04:42;4.30;99.90
6666;DHT22;3369;49.906;8.598;2023-04-03T00:07:08;4.20;99.90
6666;DHT22;3369;49.906;8.598;2023-04-03T00:09:33;4.20;99.90
6666;DHT22;3369;49.906;8.598;2023-04-03T00:11:59;4.20;99.90
6666;DHT22;3369;49.906;8.598;2023-04-03T00:14:25;4.20;99.90
6666;DHT22;3369;49.906;8.598;2023-04-03T00:16:51;4.20;99.90
6666;DHT22;3369;49.906;8.598;2023-04-03T00:19:17;4.20;99.90
6666;DHT22;3369;49.906;8.598;2023-04-03T00:21:42;4.20;99.90
6666;DHT22;3369;49.906;8.598;2023-04-03T00:24:08;4.20;99.90
6666;DHT22;3369;49.906;8.598;2023-04-03T00:26:34;4.20;99.90
6666;DHT22;3369;49.906;8.598;2023-04-03T00:28:59;4.20;99.90
6666;DHT22;3369;49.906;8.598;2023-04-03T00:31:25;4.20;99.90
6666;DHT22;3369;49.906;8.598;2023-04-03T00:33:50;4.20;99.90
6666;DHT22;3369;49.906;8.598;2023-04-03T00:36:16;4.20;99.90
6666;DHT22;3369;49.906;8.598;2023-04-03T00:38:42;4.10;99.90
6666;DHT22;3369;49.906;8.598;2023-04-03T00:41:07;4.10;99.90
6666;DHT22;3369;49.906;8.598;2023-04-03T00:43:33;4.10;99.90
6666;DHT22;3369;49.906;8.598;2023-04-03T00:45:59;4.10;99.90
6666;DHT22;3369;49.906;8.598;2023-04-03T00:48:27;4.10;99.90
6666;DHT22;3369;49.906;8.598;2023-04-03T00:50:53;4.00;99.90
6666;DHT22;3369;49.906;8.598;2023-04-03T00:53:28;4.00;99.90
6666;DHT22;3369;49.906;8.598;2023-04-03T00:55:55;4.00;99.90
6666;DHT22;3369;49.906;8.598;2023-04-03T00:58:25;4.00;99.90
6666;DHT22;3369;49.906;8.598;2023-04-03T01:00:55;4.00;99.90
6666;DHT22;3369;49.906;8.598;2023-04-03T01:03:23;4.00;99.90
6666;DHT22;3369;49.906;8.598;2023-04-03T01:05:49;4.00;99.90
6666;DHT22;3369;49.906;8.598;2023-04-03T01:30:00;3.70;99.90
6666;DHT22;3369;49.906;8.598;2023-04-03T01:32:26;3.70;99.90
6666;DHT22;3369;49.906;8.598;2023-04-03T01:34:51;3.70;99.90
6666;DHT22;3369;49.906;8.598;2023-04-03T01:37:17;3.80;99.90
6666;DHT22;3369;49.906;8.598;2023-04-03T01:39:43;3.80;99.90
6666;DHT22;3369;49.906;8.598;2023-04-03T01:42:08;3.80;99.90
6666;DHT22;3369;49.906;8.598;2023-04-03T01:44:34;3.80;99.90
6666;DHT22;3369;49.906;8.598;2023-04-03T01:47:00;3.80;99.90
6666;DHT22;3369;49.906;8.598;2023-04-03T01:49:26;3.90;99.90
6666;DHT22;3369;49.906;8.598;2023-04-03T01:51:51;3.80;99.90
6666;DHT22;3369;49.906;8.598;2023-04-03T01:54:17;3.90;99.90
6666;DHT22;3369;49.906;8.598;2023-04-03T01:56:42;3.90;99.90
6666;DHT22;3369;49.906;8.598;2023-04-03T01:59:08;3.90;99.90
6666;DHT22;3369;49.906;8.598;2023-04-03T02:01:34;4.00;99.90
6666;DHT22;3369;49.906;8.598;2023-04-03T02:04:00;4.00;99.90
6666;DHT22;3369;49.906;8.598;2023-04-03T02:06:25;4.00;99.90
6666;DHT22;3369;49.906;8.598;2023-04-03T02:08:51;3.90;99.90
6666;DHT22;3369;49.906;8.598;2023-04-03T02:11:17;4.00;99.90
6666;DHT22;3369;49.906;8.598;2023-04-03T02:13:42;3.90;99.90
6666;DHT22;3369;49.906;8.598;2023-04-03T02:16:11;3.90;99.90
6666;DHT22;3369;49.906;8.598;2023-04-03T02:18:39;3.90;99.90
6666;DHT22;3369;49.906;8.598;2023-04-03T02:21:04;3.90;99.90
6666;DHT22;3369;49.906;8.598;2023-04-03T02:23:31;3.90;99.90
6666;DHT22;3369;49.906;8.598;2023-04-03T02:26:08;3.80;99.90
6666;DHT22;3369;49.906;8.598;2023-04-03T02:28:34;3.80;99.90
6666;DHT22;3369;49.906;8.598;2023-04-03T02:31:00;3.80;99.90
6666;DHT22;3369;49.906;8.598;2023-04-03T02:33:26;3.90;99.90
6666;DHT22;3369;49.906;8.598;2023-04-03T02:35:55;3.80;99.90
6666;DHT22;3369;49.906;8.598;2023-04-03T02:38:21;3.80;99.90
6666;DHT22;3369;49.906;8.598;2023-04-03T02:40:47;3.90;99.90
6666;DHT22;3369;49.906;8.598;2023-04-03T02:43:13;3.80;99.90
6666;DHT22;3369;49.906;8.598;2023-04-03T02:45:39;3.80;99.90
6666;DHT22;3369;49.906;8.598;2023-04-03T02:48:05;3.80;99.90
6666;DHT22;3369;49.906;8.598;2023-04-03T02:50:30;3.80;99.90
6666;DHT22;3369;49.906;8.598;2023-04-03T02:52:56;3.80;99.90
6666;DHT22;3369;49.906;8.598;2023-04-03T02:55:21;3.80;99.90
6666;DHT22;3369;49.906;8.598;2023-04-03T02:57:47;3.80;99.90
6666;DHT22;3369;49.906;8.598;2023-04-03T03:00:13;3.80;99.90
6666;DHT22;3369;49.906;8.598;2023-04-03T03:02:39;3.80;99.90
6666;DHT22;3369;49.906;8.598;2023-04-03T03:05:06;3.70;99.90
6666;DHT22;3369;49.906;8.598;2023-04-03T03:07:32;3.70;99.90
6666;DHT22;3369;49.906;8.598;2023-04-03T03:09:57;3.70;99.90
6666;DHT22;3369;49.906;8.598;2023-04-03T03:12:23;3.70;99.90
6666;DHT22;3369;49.906;8.598;2023-04-03T03:14:50;3.70;99.90
6666;DHT22;3369;49.906;8.598;2023-04-03T03:17:16;3.60;99.90
6666;DHT22;3369;49.906;8.598;2023-04-03T03:19:42;3.60;99.90
6666;DHT22;3369;49.906;8.598;2023-04-03T03:22:08;3.50;99.90
6666;DHT22;3369;49.906;8.598;2023-04-03T03:24:34;3.50;99.90
6666;DHT22;3369;49.906;8.598;2023-04-03T03:27:00;3.50;99.90
6666;DHT22;3369;49.906;8.598;2023-04-03T03:29:25;3.50;99.90
6666;DHT22;3369;49.906;8.598;2023-04-03T03:31:51;3.40;99.90
6666;DHT22;3369;49.906;8.598;2023-04-03T03:34:16;3.40;99.90
6666;DHT22;3369;49.906;8.598;2023-04-03T03:36:42;3.40;99.90
6666;DHT22;3369;49.906;8.598;2023-04-03T03:39:08;3.40;99.90
6666;DHT22;3369;49.906;8.598;2023-04-03T03:41:33;3.40;99.90
6666;DHT22;3369;49.906;8.598;2023-04-03T03:43:59;3.40;99.90
6666;DHT22;3369;49.906;8.598;2023-04-03T03:46:25;3.40;99.90
6666;DHT22;3369;49.906;8.598;2023-04-03T03:48:50;3.40;99.90
6666;DHT22;3369;49.906;8.598;2023-04-03T03:51:16;3.50;99.90
6666;DHT22;3369;49.906;8.598;2023-04-03T03:53:42;3.50;99.90
6666;DHT22;3369;49.906;8.598;2023-04-03T03:56:07;3.50;99.90
6666;DHT22;3369;49.906;8.598;2023-04-03T03:58:33;3.50;99.90
6666;DHT22;3369;49.906;8.598;2023-04-03T04:01:03;3.50;99.90
6666;DHT22;3369;49.906;8.598;2023-04-03T04:03:29;3.50;99.90
6666;DHT22;3369;49.906;8.598;2023-04-03T04:05:54;3.50;99.90
6666;DHT22;3369;49.906;8.598;2023-04-03T04:08:20;3.50;99.90
6666;DHT22;3369;49.906;8.598;2023-04-03T04:10:46;3.50;99.90
6666;DHT22;3369;49.906;8.598;2023-04-03T04:13:11;3.60;99.90
6666;DHT22;3369;49.906;8.598;2023-04-03T04:15:37;3.60;99.90
6666;DHT22;3369;49.906;8.598;2023-04-03T04:18:03;3.50;99.90
6666;DHT22;3369;49.906;8.598;2023-04-03T04:20:28;3.60;99.90
6666;DHT22;3369;49.906;8.598;2023-04-03T04:22:54;3.60;99.90
6666;DHT22;3369;49.906;8.598;2023-04-03T04:25:20;3.50;99.90
6666;DHT22;3369;49.906;8.598;2023-04-03T04:27:46;3.50;99.90
6666;DHT22;3369;49.906;8.598;2023-04-03T04:30:11;3.60;99.90
6666;DHT22;3369;49.906;8.598;2023-04-03T04:32:37;3.60;99.90
6666;DHT22;3369;49.906;8.598;2023-04-03T04:35:03;3.50;99.90
6666;DHT22;3369;49.906;8.598;2023-04-03T04:37:29;3.50;99.90
6666;DHT22;3369;49.906;8.598;2023-04-03T04:39:55;3.50;99.90
6666;DHT22;3369;49.906;8.598;2023-04-03T04:42:21;3.50;99.90
6666;DHT22;3369;49.906;8.598;2023-04-03T04:44:46;3.50;99.90
6666;DHT22;3369;49.906;8.598;2023-04-03T04:47:12;3.50;99.90
6666;DHT22;3369;49.906;8.598;2023-04-03T04:49:38;3.50;99.90
6666;DHT22;3369;49.906;8.598;2023-04-03T04:52:03;3.50;99.90
6666;DHT22;3369;49.906;8.598;2023-04-03T04:54:29;3.50;99.90
6666;DHT22;3369;49.906;8.598;2023-04-03T04:56:55;3.50;99.90
6666;DHT22;3369;49.906;8.598;2023-04-03T04:59:21;3.50;99.90
6666;DHT22;3369;49.906;8.598;2023-04-03T05:01:46;3.40;99.90
6666;DHT22;3369;49.906;8.598;2023-04-03T05:04:12;3.40;99.90
6666;DHT22;3369;49.906;8.598;2023-04-03T05:06:40;3.40;99.90
6666;DHT22;3369;49.906;8.598;2023-04-03T05:09:06;3.40;99.90
6666;DHT22;3369;49.906;8.598;2023-04-03T05:11:32;3.30;99.90
6666;DHT22;3369;49.906;8.598;2023-04-03T05:13:57;3.30;99.90
6666;DHT22;3369;49.906;8.598;2023-04-03T05:16:23;3.30;99.90
6666;DHT22;3369;49.906;8.598;2023-04-03T05:18:49;3.20;99.90
6666;DHT22;3369;49.906;8.598;2023-04-03T05:21:15;3.30;99.90
6666;DHT22;3369;49.906;8.598;2023-04-03T05:23:41;3.20;99.90
6666;DHT22;3369;49.906;8.598;2023-04-03T05:26:06;3.20;99.90
6666;DHT22;3369;49.906;8.598;2023-04-03T05:28:32;3.20;99.90
6666;DHT22;3369;49.906;8.598;2023-04-03T05:30:58;3.20;99.90
6666;DHT22;3369;49.906;8.598;2023-04-03T05:33:25;3.10;99.90
6666;DHT22;3369;49.906;8.598;2023-04-03T05:35:52;3.10;99.90
6666;DHT22;3369;49.906;8.598;2023-04-03T05:38:18;3.10;99.90
6666;DHT22;3369;49.906;8.598;2023-04-03T05:40:44;3.10;99.90
6666;DHT22;3369;49.906;8.598;2023-04-03T05:43:09;3.10;99.90
6666;DHT22;3369;49.906;8.598;2023-04-03T05:45:35;3.10;99.90
6666;DHT22;3369;49.906;8.598;2023-04-03T05:48:01;3.10;99.90
6666;DHT22;3369;49.906;8.598;2023-04-03T05:50:26;3.10;99.90
6666;DHT22;3369;49.906;8.598;2023-04-03T05:52:54;3.10;99.90
6666;DHT22;3369;49.906;8.598;2023-04-03T05:55:21;3.20;99.90
6666;DHT22;3369;49.906;8.598;2023-04-03T05:57:47;3.30;99.90
6666;DHT22;3369;49.906;8.598;2023-04-03T06:00:13;3.30;99.90
6666;DHT22;3369;49.906;8.598;2023-04-03T06:02:41;3.30;99.90
6666;DHT22;3369;49.906;8.598;2023-04-03T06:05:08;3.30;99.90
6666;DHT22;3369;49.906;8.598;2023-04-03T06:07:34;3.30;99.90
6666;DHT22;3369;49.906;8.598;2023-04-03T06:10:00;3.40;99.90
6666;DHT22;3369;49.906;8.598;2023-04-03T06:12:26;3.40;99.90
6666;DHT22;3369;49.906;8.598;2023-04-03T06:14:55;3.50;99.90
6666;DHT22;3369;49.906;8.598;2023-04-03T06:17:20;3.50;99.90
6666;DHT22;3369;49.906;8.598;2023-04-03T06:19:46;3.60;99.90
6666;DHT22;3369;49.906;8.598;2023-04-03T06:22:12;3.60;99.90
6666;DHT22;3369;49.906;8.598;2023-04-03T06:24:38;3.60;99.90
6666;DHT22;3369;49.906;8.598;2023-04-03T06:27:04;3.60;99.90
6666;DHT22;3369;49.906;8.598;2023-04-03T06:29:29;3.60;99.90
6666;DHT22;3369;49.906;8.598;2023-04-03T06:31:55;3.60;99.90
6666;DHT22;3369;49.906;8.598;2023-04-03T06:34:21;3.70;99.90
6666;DHT22;3369;49.906;8.598;2023-04-03T06:36:48;3.70;99.90
6666;DHT22;3369;49.906;8.598;2023-04-03T06:39:20;3.70;99.90
6666;DHT22;3369;49.906;8.598;2023-04-03T06:41:47;3.70;99.90
6666;DHT22;3369;49.906;8.598;2023-04-03T06:44:13;3.70;99.90
6666;DHT22;3369;49.906;8.598;2023-04-03T06:46:42;3.80;99.90
6666;DHT22;3369;49.906;8.598;2023-04-03T06:49:08;3.90;99.90
6666;DHT22;3369;49.906;8.598;2023-04-03T07:13:23;4.90;99.90
6666;DHT22;3369;49.906;8.598;2023-04-03T07:15:49;5.00;99.90
6666;DHT22;3369;49.906;8.598;2023-04-03T07:18:15;5.20;99.90
6666;DHT22;3369;49.906;8.598;2023-04-03T07:20:42;5.40;99.90
6666;DHT22;3369;49.906;8.598;2023-04-03T07:23:08;5.50;99.90
6666;DHT22;3369;49.906;8.598;2023-04-03T07:25:33;5.60;99.90
6666;DHT22;3369;49.906;8.598;2023-04-03T07:27:59;5.80;99.90
6666;DHT22;3369;49.906;8.598;2023-04-03T07:30:25;6.00;99.90
6666;DHT22;3369;49.906;8.598;2023-04-03T07:32:51;6.10;99.90
6666;DHT22;3369;49.906;8.598;2023-04-03T07:35:17;6.20;99.90
6666;DHT22;3369;49.906;8.598;2023-04-03T07:37:43;6.20;99.90
6666;DHT22;3369;49.906;8.598;2023-04-03T07:40:09;6.30;99.90
6666;DHT22;3369;49.906;8.598;2023-04-03T07:42:35;6.40;99.90
6666;DHT22;3369;49.906;8.598;2023-04-03T07:45:03;6.50;99.90
6666;DHT22;3369;49.906;8.598;2023-04-03T07:47:29;6.60;99.90
6666;DHT22;3369;49.906;8.598;2023-04-03T07:49:54;6.70;99.70
6666;DHT22;3369;49.906;8.598;2023-04-03T07:52:22;6.80;99.90
6666;DHT22;3369;49.906;8.598;2023-04-03T07:54:48;6.80;99.90
6666;DHT22;3369;49.906;8.598;2023-04-03T07:57:14;6.90;99.50
6666;DHT22;3369;49.906;8.598;2023-04-03T07:59:40;6.90;98.90
6666;DHT22;3369;49.906;8.598;2023-04-03T08:02:09;6.90;98.70
6666;DHT22;3369;49.906;8.598;2023-04-03T08:04:35;6.90;99.00
6666;DHT22;3369;49.906;8.598;2023-04-03T08:07:01;6.90;99.50
6666;DHT22;3369;49.906;8.598;2023-04-03T08:09:26;6.90;99.40
6666;DHT22;3369;49.906;8.598;2023-04-03T08:11:52;7.10;99.60
6666;DHT22;3369;49.906;8.598;2023-04-03T08:14:19;7.10;99.30
6666;DHT22;3369;49.906;8.598;2023-04-03T08:16:46;7.20;98.60
6666;DHT22;3369;49.906;8.598;2023-04-03T08:19:12;7.30;98.30
6666;DHT22;3369;49.906;8.598;2023-04-03T08:21:40;7.30;98.40
6666;DHT22;3369;49.906;8.598;2023-04-03T08:24:07;7.30;98.30
6666;DHT22;3369;49.906;8.598;2023-04-03T08:26:33;7.40;99.10
6666;DHT22;3369;49.906;8.598;2023-04-03T08:28:59;7.50;99.30
6666;DHT22;3369;49.906;8.598;2023-04-03T08:31:25;7.60;99.30
6666;DHT22;3369;49.906;8.598;2023-04-03T08:33:50;7.80;99.50
6666;DHT22;3369;49.906;8.598;2023-04-03T08:36:22;7.90;99.00
6666;DHT22;3369;49.906;8.598;2023-04-03T08:38:48;8.00;98.10
6666;DHT22;3369;49.906;8.598;2023-04-03T08:46:37;8.00;96.60
6666;DHT22;3369;49.906;8.598;2023-04-03T08:49:15;7.90;96.30
6666;DHT22;3369;49.906;8.598;2023-04-03T08:51:47;7.90;96.40
6666;DHT22;3369;49.906;8.598;2023-04-03T08:54:37;7.80;96.60
6666;DHT22;3369;49.906;8.598;2023-04-03T08:57:06;7.90;97.00
6666;DHT22;3369;49.906;8.598;2023-04-03T08:59:37;7.90;96.90
6666;DHT22;3369;49.906;8.598;2023-04-03T09:02:18;8.10;97.40
6666;DHT22;3369;49.906;8.598;2023-04-03T09:04:46;8.30;97.30
6666;DHT22;3369;49.906;8.598;2023-04-03T09:07:19;8.40;97.40
6666;DHT22;3369;49.906;8.598;2023-04-03T09:09:47;8.60;96.80
6666;DHT22;3369;49.906;8.598;2023-04-03T09:12:27;8.60;96.40
6666;DHT22;3369;49.906;8.598;2023-04-03T09:18:12;8.40;95.90
6666;DHT22;3369;49.906;8.598;2023-04-03T09:20:54;8.30;96.50
6666;DHT22;3369;49.906;8.598;2023-04-03T09:23:46;8.30;96.10
6666;DHT22;3369;49.906;8.598;2023-04-03T09:26:35;8.50;96.40
6666;DHT22;3369;49.906;8.598;2023-04-03T09:29:06;8.60;95.80
6666;DHT22;3369;49.906;8.598;2023-04-03T09:31:43;8.70;95.80
6666;DHT22;3369;49.906;8.598;2023-04-03T09:34:28;8.90;95.00
6666;DHT22;3369;49.906;8.598;2023-04-03T09:37:00;8.90;95.70
6666;DHT22;3369;49.906;8.598;2023-04-03T09:39:33;8.90;94.30
6666;DHT22;3369;49.906;8.598;2023-04-03T09:42:19;8.90;95.10
6666;DHT22;3369;49.906;8.598;2023-04-03T09:44:55;8.90;94.10
6666;DHT22;3369;49.906;8.598;2023-04-03T09:47:23;8.70;93.60
6666;DHT22;3369;49.906;8.598;2023-04-03T09:49:49;8.40;94.80
6666;DHT22;3369;49.906;8.598;2023-04-03T09:52:25;8.20;94.20
6666;DHT22;3369;49.906;8.598;2023-04-03T09:54:51;8.00;94.10
6666;DHT22;3369;49.906;8.598;2023-04-03T09:57:17;8.00;94.70
6666;DHT22;3369;49.906;8.598;2023-04-03T10:00:00;8.00;95.50
6666;DHT22;3369;49.906;8.598;2023-04-03T10:04:58;8.30;95.50
6666;DHT22;3369;49.906;8.598;2023-04-03T10:09:57;8.50;95.40
6666;DHT22;3369;49.906;8.598;2023-04-03T10:12:23;8.70;95.00
6666;DHT22;3369;49.906;8.598;2023-04-03T10:14:59;8.90;94.80
6666;DHT22;3369;49.906;8.598;2023-04-03T10:17:51;8.90;94.70
6666;DHT22;3369;49.906;8.598;2023-04-03T10:20:40;9.00;94.90
6666;DHT22;3369;49.906;8.598;2023-04-03T10:23:18;9.30;95.50
6666;DHT22;3369;49.906;8.598;2023-04-03T10:26:05;9.60;95.90
6666;DHT22;3369;49.906;8.598;2023-04-03T10:31:29;9.80;93.00
6666;DHT22;3369;49.906;8.598;2023-04-03T10:34:31;9.60;93.20
6666;DHT22;3369;49.906;8.598;2023-04-03T10:37:18;9.50;93.80
6666;DHT22;3369;49.906;8.598;2023-04-03T10:43:00;9.70;94.30
6666;DHT22;3369;49.906;8.598;2023-04-03T10:45:57;9.80;94.40
6666;DHT22;3369;49.906;8.598;2023-04-03T10:51:10;10.00;90.40
6666;DHT22;3369;49.906;8.598;2023-04-03T10:53:53;9.90;92.20
6666;DHT22;3369;49.906;8.598;2023-04-03T11:02:30;9.80;92.50
6666;DHT22;3369;49.906;8.598;2023-04-03T11:05:05;9.60;92.70
6666;DHT22;3369;49.906;8.598;2023-04-03T11:07:39;9.30;91.60
6666;DHT22;3369;49.906;8.598;2023-04-03T11:10:28;9.10;91.80
6666;DHT22;3369;49.906;8.598;2023-04-03T11:13:06;9.10;92.40
6666;DHT22;3369;49.906;8.598;2023-04-03T11:15:33;9.10;91.60
6666;DHT22;3369;49.906;8.598;2023-04-03T11:18:06;9.00;91.90
6666;DHT22;3369;49.906;8.598;2023-04-03T11:20:35;9.10;92.40
6666;DHT22;3369;49.906;8.598;2023-04-03T11:23:13;9.10;92.20
6666;DHT22;3369;49.906;8.598;2023-04-03T11:25:42;9.20;91.00
6666;DHT22;3369;49.906;8.598;2023-04-03T11:28:13;9.10;90.40
6666;DHT22;3369;49.906;8.598;2023-04-03T11:31:02;9.10;90.20
6666;DHT22;3369;49.906;8.598;2023-04-03T11:33:55;9.20;90.30
6666;DHT22;3369;49.906;8.598;2023-04-03T11:36:32;9.40;91.10
6666;DHT22;3369;49.906;8.598;2023-04-03T11:39:25;9.40;90.00
6666;DHT22;3369;49.906;8.598;2023-04-03T11:41:51;9.30;89.90
6666;DHT22;3369;49.906;8.598;2023-04-03T11:44:43;9.30;89.50
6666;DHT22;3369;49.906;8.598;2023-04-03T11:47:11;9.30;86.70
6666;DHT22;3369;49.906;8.598;2023-04-03T11:49:51;9.30;88.90
6666;DHT22;3369;49.906;8.598;2023-04-03T12:05:54;9.60;85.60
6666;DHT22;3369;49.906;8.598;2023-04-03T12:27:00;9.50;77.20
6666;DHT22;3369;49.906;8.598;2023-04-03T12:29:37;9.40;73.30
6666;DHT22;3369;49.906;8.598;2023-04-03T12:42:42;9.60;73.00
6666;DHT22;3369;49.906;8.598;2023-04-03T12:45:20;9.70;74.60
6666;DHT22;3369;49.906;8.598;2023-04-03T12:47:49;9.90;72.70
6666;DHT22;3369;49.906;8.598;2023-04-03T12:50:26;9.90;71.00
6666;DHT22;3369;49.906;8.598;2023-04-03T12:52:58;9.80;71.10
6666;DHT22;3369;49.906;8.598;2023-04-03T12:55:24;9.70;70.60
6666;DHT22;3369;49.906;8.598;2023-04-03T12:57:50;9.60;74.30
6666;DHT22;3369;49.906;8.598;2023-04-03T13:00:32;9.50;72.10
6666;DHT22;3369;49.906;8.598;2023-04-03T13:03:01;9.40;73.20
6666;DHT22;3369;49.906;8.598;2023-04-03T13:05:28;9.40;70.10
6666;DHT22;3369;49.906;8.598;2023-04-03T13:07:59;9.40;71.20
6666;DHT22;3369;49.906;8.598;2023-04-03T13:29:54;9.50;67.70
6666;DHT22;3369;49.906;8.598;2023-04-03T13:32:24;9.50;70.10
6666;DHT22;3369;49.906;8.598;2023-04-03T13:34:51;9.50;70.30
6666;DHT22;3369;49.906;8.598;2023-04-03T13:37:28;9.60;70.80
6666;DHT22;3369;49.906;8.598;2023-04-03T13:42:31;10.00;74.40
6666;DHT22;3369;49.906;8.598;2023-04-03T13:45:23;10.10;76.30
6666;DHT22;3369;49.906;8.598;2023-04-03T13:48:05;10.20;76.40
6666;DHT22;3369;49.906;8.598;2023-04-03T13:50:31;10.30;71.70
6666;DHT22;3369;49.906;8.598;2023-04-03T13:53:09;10.20;71.00
6666;DHT22;3369;49.906;8.598;2023-04-03T13:55:55;10.00;71.90
6666;DHT22;3369;49.906;8.598;2023-04-03T13:58:27;10.00;73.30
6666;DHT22;3369;49.906;8.598;2023-04-03T14:03:36;9.90;74.00
6666;DHT22;3369;49.906;8.598;2023-04-03T14:06:05;10.00;74.60
6666;DHT22;3369;49.906;8.598;2023-04-03T14:08:30;10.20;75.80
6666;DHT22;3369;49.906;8.598;2023-04-03T14:10:56;10.20;73.80
6666;DHT22;3369;49.906;8.598;2023-04-03T14:13:22;10.20;70.40
6666;DHT22;3369;49.906;8.598;2023-04-03T14:15:48;10.00;69.40
6666;DHT22;3369;49.906;8.598;2023-04-03T14:18:18;9.80;71.50
6666;DHT22;3369;49.906;8.598;2023-04-03T14:20:44;9.60;72.30
6666;DHT22;3369;49.906;8.598;2023-04-03T14:23:10;9.50;72.90
6666;DHT22;3369;49.906;8.598;2023-04-03T14:25:36;9.50;74.20
6666;DHT22;3369;49.906;8.598;2023-04-03T14:28:17;9.60;74.90
6666;DHT22;3369;49.906;8.598;2023-04-03T14:30:44;9.50;75.40
6666;DHT22;3369;49.906;8.598;2023-04-03T14:33:15;9.40;73.80
6666;DHT22;3369;49.906;8.598;2023-04-03T14:35:41;9.30;75.90
6666;DHT22;3369;49.906;8.598;2023-04-03T14:38:29;9.30;76.70
6666;DHT22;3369;49.906;8.598;2023-04-03T14:40:56;9.40;77.00
6666;DHT22;3369;49.906;8.598;2023-04-03T14:43:22;9.40;75.40
6666;DHT22;3369;49.906;8.598;2023-04-03T14:45:49;9.30;71.90
6666;DHT22;3369;49.906;8.598;2023-04-03T14:48:23;9.20;72.70
6666;DHT22;3369;49.906;8.598;2023-04-03T14:50:50;9.10;74.10
6666;DHT22;3369;49.906;8.598;2023-04-03T14:53:17;9.10;75.20
6666;DHT22;3369;49.906;8.598;2023-04-03T14:55:47;9.20;75.10
6666;DHT22;3369;49.906;8.598;2023-04-03T14:58:14;9.20;72.00
6666;DHT22;3369;49.906;8.598;2023-04-03T15:00:40;9.20;72.20
6666;DHT22;3369;49.906;8.598;2023-04-03T15:03:14;9.00;72.00
6666;DHT22;3369;49.906;8.598;2023-04-03T15:05:41;8.90;73.00
6666;DHT22;3369;49.906;8.598;2023-04-03T15:08:34;8.80;73.90
6666;DHT22;3369;49.906;8.598;2023-04-03T15:10:59;8.90;74.70
6666;DHT22;3369;49.906;8.598;2023-04-03T15:13:26;8.90;75.60
6666;DHT22;3369;49.906;8.598;2023-04-03T15:15:52;8.90;75.10
6666;DHT22;3369;49.906;8.598;2023-04-03T15:18:21;9.00;75.70
6666;DHT22;3369;49.906;8.598;2023-04-03T15:20:48;9.00;75.60
6666;DHT22;3369;49.906;8.598;2023-04-03T15:23:15;9.10;76.70
6666;DHT22;3369;49.906;8.598;2023-04-03T15:25:46;9.00;75.50
6666;DHT22;3369;49.906;8.598;2023-04-03T15:28:30;9.00;76.00
6666;DHT22;3369;49.906;8.598;2023-04-03T15:30:56;9.10;76.20
6666;DHT22;3369;49.906;8.598;2023-04-03T15:33:22;9.10;75.20
6666;DHT22;3369;49.906;8.598;2023-04-03T15:35:48;9.10;74.00
6666;DHT22;3369;49.906;8.598;2023-04-03T15:38:14;9.00;74.10
6666;DHT22;3369;49.906;8.598;2023-04-03T15:40:40;8.90;74.70
6666;DHT22;3369;49.906;8.598;2023-04-03T15:43:06;8.90;73.90
6666;DHT22;3369;49.906;8.598;2023-04-03T15:45:33;8.80;74.80
6666;DHT22;3369;49.906;8.598;2023-04-03T15:47:59;8.80;74.50
6666;DHT22;3369;49.906;8.598;2023-04-03T15:50:25;8.80;74.90
6666;DHT22;3369;49.906;8.598;2023-04-03T15:52:52;8.80;73.10
6666;DHT22;3369;49.906;8.598;2023-04-03T15:55:24;8.70;72.00
6666;DHT22;3369;49.906;8.598;2023-04-03T15:57:50;8.70;71.90
6666;DHT22;3369;49.906;8.598;2023-04-03T16:00:16;8.60;71.20
6666;DHT22;3369;49.906;8.598;2023-04-03T16:02:44;8.60;70.60
6666;DHT22;3369;49.906;8.598;2023-04-03T16:05:11;8.50;72.90
6666;DHT22;3369;49.906;8.598;2023-04-03T16:07:38;8.40;73.60
6666;DHT22;3369;49.906;8.598;2023-04-03T16:10:05;8.40;74.10
6666;DHT22;3369;49.906;8.598;2023-04-03T16:12:31;8.40;74.80
6666;DHT22;3369;49.906;8.598;2023-04-03T16:14:56;8.40;75.50
6666;DHT22;3369;49.906;8.598;2023-04-03T16:17:22;8.30;75.30
6666;DHT22;3369;49.906;8.598;2023-04-03T16:19:48;8.30;74.70
6666;DHT22;3369;49.906;8.598;2023-04-03T16:22:14;8.30;75.60
6666;DHT22;3369;49.906;8.598;2023-04-03T16:24:40;8.20;76.10
6666;DHT22;3369;49.906;8.598;2023-04-03T16:27:06;8.20;74.00
6666;DHT22;3369;49.906;8.598;2023-04-03T16:29:32;8.20;74.40
6666;DHT22;3369;49.906;8.598;2023-04-03T16:31:58;8.10;74.80
6666;DHT22;3369;49.906;8.598;2023-04-03T16:34:24;8.20;75.20
6666;DHT22;3369;49.906;8.598;2023-04-03T16:36:51;8.10;75.40
6666;DHT22;3369;49.906;8.598;2023-04-03T16:39:18;8.10;76.10
6666;DHT22;3369;49.906;8.598;2023-04-03T16:41:44;8.00;75.20
6666;DHT22;3369;49.906;8.598;2023-04-03T16:44:10;8.00;75.70
6666;DHT22;3369;49.906;8.598;2023-04-03T16:46:36;7.90;74.40
6666;DHT22;3369;49.906;8.598;2023-04-03T16:49:02;7.90;75.00
6666;DHT22;3369;49.906;8.598;2023-04-03T16:51:28;7.80;75.70
6666;DHT22;3369;49.906;8.598;2023-04-03T16:53:54;7.70;75.80
6666;DHT22;3369;49.906;8.598;2023-04-03T16:56:20;7.70;75.80
6666;DHT22;3369;49.906;8.598;2023-04-03T16:58:47;7.70;76.30
6666;DHT22;3369;49.906;8.598;2023-04-03T17:01:15;7.60;76.70
6666;DHT22;3369;49.906;8.598;2023-04-03T17:03:42;7.50;77.50
6666;DHT22;3369;49.906;8.598;2023-04-03T17:06:10;7.50;76.20
6666;DHT22;3369;49.906;8.598;2023-04-03T17:08:41;7.40;77.80
6666;DHT22;3369;49.906;8.598;2023-04-03T17:11:07;7.30;77.20
6666;DHT22;3369;49.906;8.598;2023-04-03T17:13:33;7.20;76.40
6666;DHT22;3369;49.906;8.598;2023-04-03T17:15:59;7.20;76.30
6666;DHT22;3369;49.906;8.598;2023-04-03T17:18:26;7.10;76.60
6666;DHT22;3369;49.906;8.598;2023-04-03T17:20:52;7.00;76.40
6666;DHT22;3369;49.906;8.598;2023-04-03T17:23:18;7.00;76.50
6666;DHT22;3369;49.906;8.598;2023-04-03T17:25:43;6.90;77.20
6666;DHT22;3369;49.906;8.598;2023-04-03T17:28:09;6.80;77.50
6666;DHT22;3369;49.906;8.598;2023-04-03T17:30:36;6.70;77.30
6666;DHT22;3369;49.906;8.598;2023-04-03T17:33:01;6.70;78.20
6666;DHT22;3369;49.906;8.598;2023-04-03T17:35:27;6.60;78.20
6666;DHT22;3369;49.906;8.598;2023-04-03T17:37:55;6.50;78.10
6666;DHT22;3369;49.906;8.598;2023-04-03T17:40:20;6.40;78.20
6666;DHT22;3369;49.906;8.598;2023-04-03T17:42:46;6.40;77.80
6666;DHT22;3369;49.906;8.598;2023-04-03T17:45:12;6.30;78.30
6666;DHT22;3369;49.906;8.598;2023-04-03T17:47:37;6.30;79.10
6666;DHT22;3369;49.906;8.598;2023-04-03T17:50:03;6.20;78.00
6666;DHT22;3369;49.906;8.598;2023-04-03T17:52:30;6.20;78.90
6666;DHT22;3369;49.906;8.598;2023-04-03T17:54:56;6.10;78.80
6666;DHT22;3369;49.906;8.598;2023-04-03T17:57:22;6.00;78.60
6666;DHT22;3369;49.906;8.598;2023-04-03T17:59:48;6.00;78.90
6666;DHT22;3369;49.906;8.598;2023-04-03T18:02:13;5.90;78.00
6666;DHT22;3369;49.906;8.598;2023-04-03T18:04:40;5.90;76.10
6666;DHT22;3369;49.906;8.598;2023-04-03T18:07:06;5.90;77.20
6666;DHT22;3369;49.906;8.598;2023-04-03T18:09:35;5.80;77.10
6666;DHT22;3369;49.906;8.598;2023-04-03T18:12:03;5.70;77.80
6666;DHT22;3369;49.906;8.598;2023-04-03T18:14:32;5.70;78.00
6666;DHT22;3369;49.906;8.598;2023-04-03T18:16:58;5.60;78.30
6666;DHT22;3369;49.906;8.598;2023-04-03T18:19:25;5.60;78.90
6666;DHT22;3369;49.906;8.598;2023-04-03T18:21:54;5.50;79.20
6666;DHT22;3369;49.906;8.598;2023-04-03T18:24:22;5.40;79.20
6666;DHT22;3369;49.906;8.598;2023-04-03T18:26:56;5.30;78.90
6666;DHT22;3369;49.906;8.598;2023-04-03T18:29:23;5.30;79.40
6666;DHT22;3369;49.906;8.598;2023-04-03T18:31:51;5.30;79.60
6666;DHT22;3369;49.906;8.598;2023-04-03T18:34:17;5.20;80.00
6666;DHT22;3369;49.906;8.598;2023-04-03T18:36:43;5.20;79.70
6666;DHT22;3369;49.906;8.598;2023-04-03T18:39:09;5.10;79.60
6666;DHT22;3369;49.906;8.598;2023-04-03T18:41:36;5.10;79.60
6666;DHT22;3369;49.906;8.598;2023-04-03T18:44:04;5.00;80.00
6666;DHT22;3369;49.906;8.598;2023-04-03T18:46:32;5.00;79.50